sensor_id;sensor_type;location;lat;lon;timestamp;pressure;altitude;pressure_sealevel;temperature;humidity
15487;BME280;7845;53.698;10.078;2023-03-01T00:02:19;102631.78;;;2.49;100.00
15487;BME280;7845;53.698;10.078;2023-03-01T00:04:45;102632.53;;;2.47;100.00
15487;BME280;7845;53.698;10.078;2023-03-01T00:07:10;102640.09;;;2.44;100.00
15487;BME280;7845;53.698;10.078;2023-03-01T00:09:36;102633.16;;;2.43;100.00
15487;BME280;7845;53.698;10.078;2023-03-01T00:12:02;102643.59;;;2.30;100.00
15487;BME280;7845;53.698;10.078;2023-03-01T00:14:28;102635.03;;;2.31;100.00
15487;BME280;7845;53.698;10.078;2023-03-01T00:16:53;102637.38;;;2.26;100.00
15487;BME280;7845;53.698;10.078;2023-03-01T00:19:20;102639.22;;;2.29;100.00
15487;BME280;7845;53.698;10.078;2023-03-01T00:21:47;102634.63;;;2.23;100.00
15487;BME280;7845;53.698;10.078;2023-03-01T00:24:13;102629.47;;;2.23;100.00
15487;BME280;7845;53.698;10.078;2023-03-01T00:26:43;102632.81;;;2.06;100.00
15487;BME280;7845;53.698;10.078;2023-03-01T00:29:09;102634.84;;;2.11;100.00
15487;BME280;7845;53.698;10.078;2023-03-01T00:31:34;102636.78;;;2.01;100.00
15487;BME280;7845;53.698;10.078;2023-03-01T00:34:03;102643.94;;;1.90;100.00
15487;BME280;7845;53.698;10.078;2023-03-01T00:36:32;102635.47;;;1.93;100.00
15487;BME280;7845;53.698;10.078;2023-03-01T00:38:57;102633.31;;;2.00;100.00
15487;BME280;7845;53.698;10.078;2023-03-01T00:41:23;102639.66;;;1.91;100.00
15487;BME280;7845;53.698;10.078;2023-03-01T00:43:49;102639.66;;;1.91;100.00
15487;BME280;7845;53.698;10.078;2023-03-01T00:46:20;102625.34;;;1.96;100.00
15487;BME280;7845;53.698;10.078;2023-03-01T00:48:46;102622.16;;;2.00;100.00
15487;BME280;7845;53.698;10.078;2023-03-01T00:51:13;102622.34;;;2.03;100.00
15487;BME280;7845;53.698;10.078;2023-03-01T00:53:40;102618.31;;;2.08;100.00
15487;BME280;7845;53.698;10.078;2023-03-01T00:56:07;102622.84;;;2.12;100.00
15487;BME280;7845;53.698;10.078;2023-03-01T00:58:33;102621.25;;;2.14;100.00
15487;BME280;7845;53.698;10.078;2023-03-01T01:00:58;102611.91;;;2.16;100.00
15487;BME280;7845;53.698;10.078;2023-03-01T01:03:25;102609.44;;;2.17;100.00
15487;BME280;7845;53.698;10.078;2023-03-01T01:05:52;102602.66;;;2.19;100.00
15487;BME280;7845;53.698;10.078;2023-03-01T01:08:18;102604.19;;;2.16;100.00
15487;BME280;7845;53.698;10.078;2023-03-01T01:10:45;102608.19;;;2.11;100.00
15487;BME280;7845;53.698;10.078;2023-03-01T01:13:10;102604.50;;;2.06;100.00
15487;BME280;7845;53.698;10.078;2023-03-01T01:15:36;102595.94;;;2.07;100.00
15487;BME280;7845;53.698;10.078;2023-03-01T01:18:01;102589.22;;;2.09;100.00
15487;BME280;7845;53.698;10.078;2023-03-01T01:20:27;102588.38;;;2.10;100.00
15487;BME280;7845;53.698;10.078;2023-03-01T01:22:53;102589.09;;;2.07;100.00
15487;BME280;7845;53.698;10.078;2023-03-01T01:25:18;102593.38;;;2.07;100.00
15487;BME280;7845;53.698;10.078;2023-03-01T01:27:43;102585.75;;;2.08;100.00
15487;BME280;7845;53.698;10.078;2023-03-01T01:30:10;102578.91;;;2.09;100.00
15487;BME280;7845;53.698;10.078;2023-03-01T01:32:36;102579.75;;;2.09;100.00
15487;BME280;7845;53.698;10.078;2023-03-01T01:35:02;102582.16;;;2.06;100.00
15487;BME280;7845;53.698;10.078;2023-03-01T01:37:27;102579.09;;;1.97;100.00
15487;BME280;7845;53.698;10.078;2023-03-01T01:39:57;102581.59;;;1.96;100.00
15487;BME280;7845;53.698;10.078;2023-03-01T01:42:24;102580.34;;;1.89;100.00
15487;BME280;7845;53.698;10.078;2023-03-01T01:45:26;102570.84;;;1.88;100.00
15487;BME280;7845;53.698;10.078;2023-03-01T01:47:53;102570.00;;;1.88;100.00
15487;BME280;7845;53.698;10.078;2023-03-01T01:50:20;102557.28;;;1.91;100.00
15487;BME280;7845;53.698;10.078;2023-03-01T01:52:48;102558.53;;;1.83;100.00
15487;BME280;7845;53.698;10.078;2023-03-01T01:55:18;102574.16;;;1.71;100.00
15487;BME280;7845;53.698;10.078;2023-03-01T01:57:49;102567.78;;;1.64;100.00
15487;BME280;7845;53.698;10.078;2023-03-01T02:00:20;102566.44;;;1.71;100.00
15487;BME280;7845;53.698;10.078;2023-03-01T02:02:47;102552.16;;;1.76;100.00
15487;BME280;7845;53.698;10.078;2023-03-01T02:05:49;102552.78;;;1.72;100.00
15487;BME280;7845;53.698;10.078;2023-03-01T02:08:18;102550.38;;;1.75;100.00
15487;BME280;7845;53.698;10.078;2023-03-01T02:10:45;102553.13;;;1.78;100.00
15487;BME280;7845;53.698;10.078;2023-03-01T02:13:10;102550.72;;;1.81;100.00
15487;BME280;7845;53.698;10.078;2023-03-01T02:15:38;102549.22;;;1.85;100.00
15487;BME280;7845;53.698;10.078;2023-03-01T02:18:05;102549.03;;;1.82;100.00
15487;BME280;7845;53.698;10.078;2023-03-01T02:23:34;102543.44;;;1.74;100.00
15487;BME280;7845;53.698;10.078;2023-03-01T02:26:09;102543.63;;;1.77;100.00
15487;BME280;7845;53.698;10.078;2023-03-01T02:28:40;102542.56;;;1.74;100.00
15487;BME280;7845;53.698;10.078;2023-03-01T02:31:08;102532.44;;;1.77;100.00
15487;BME280;7845;53.698;10.078;2023-03-01T02:33:54;102534.31;;;1.79;100.00
15487;BME280;7845;53.698;10.078;2023-03-01T02:36:28;102533.50;;;1.80;100.00
15487;BME280;7845;53.698;10.078;2023-03-01T02:38:58;102529.34;;;1.82;100.00
15487;BME280;7845;53.698;10.078;2023-03-01T02:41:26;102518.16;;;1.82;100.00
15487;BME280;7845;53.698;10.078;2023-03-01T02:43:53;102523.22;;;1.80;100.00
15487;BME280;7845;53.698;10.078;2023-03-01T02:46:21;102511.22;;;1.81;100.00
15487;BME280;7845;53.698;10.078;2023-03-01T02:48:55;102519.06;;;1.82;100.00
15487;BME280;7845;53.698;10.078;2023-03-01T02:56:41;102511.00;;;1.76;100.00
15487;BME280;7845;53.698;10.078;2023-03-01T02:59:08;102518.44;;;1.72;100.00
15487;BME280;7845;53.698;10.078;2023-03-01T03:01:34;102509.94;;;1.73;100.00
15487;BME280;7845;53.698;10.078;2023-03-01T03:04:08;102510.00;;;1.74;100.00
15487;BME280;7845;53.698;10.078;2023-03-01T03:06:35;102510.09;;;1.76;100.00
15487;BME280;7845;53.698;10.078;2023-03-01T03:09:01;102505.84;;;1.76;100.00
15487;BME280;7845;53.698;10.078;2023-03-01T03:11:26;102505.19;;;1.80;100.00
15487;BME280;7845;53.698;10.078;2023-03-01T03:13:52;102507.75;;;1.80;100.00
15487;BME280;7845;53.698;10.078;2023-03-01T03:16:18;102507.19;;;1.70;100.00
15487;BME280;7845;53.698;10.078;2023-03-01T03:18:45;102520.94;;;1.70;100.00
15487;BME280;7845;53.698;10.078;2023-03-01T03:21:12;102515.69;;;1.68;100.00
15487;BME280;7845;53.698;10.078;2023-03-01T03:23:38;102514.25;;;1.74;100.00
15487;BME280;7845;53.698;10.078;2023-03-01T03:26:04;102509.09;;;1.74;100.00
15487;BME280;7845;53.698;10.078;2023-03-01T03:28:30;102510.84;;;1.89;100.00
15487;BME280;7845;53.698;10.078;2023-03-01T03:30:58;102500.88;;;1.95;100.00
15487;BME280;7845;53.698;10.078;2023-03-01T03:33:29;102498.31;;;1.95;100.00
15487;BME280;7845;53.698;10.078;2023-03-01T03:35:54;102489.78;;;1.96;100.00
15487;BME280;7845;53.698;10.078;2023-03-01T03:38:20;102492.28;;;1.95;100.00
15487;BME280;7845;53.698;10.078;2023-03-01T03:40:52;102503.13;;;1.89;100.00
15487;BME280;7845;53.698;10.078;2023-03-01T03:43:20;102499.94;;;1.93;100.00
15487;BME280;7845;53.698;10.078;2023-03-01T03:45:48;102490.84;;;2.00;100.00
15487;BME280;7845;53.698;10.078;2023-03-01T03:48:14;102480.00;;;2.05;100.00
15487;BME280;7845;53.698;10.078;2023-03-01T03:50:40;102475.00;;;2.08;100.00
15487;BME280;7845;53.698;10.078;2023-03-01T03:53:11;102478.53;;;2.10;100.00
15487;BME280;7845;53.698;10.078;2023-03-01T03:55:37;102482.06;;;2.12;100.00
15487;BME280;7845;53.698;10.078;2023-03-01T03:58:05;102468.41;;;2.13;100.00
15487;BME280;7845;53.698;10.078;2023-03-01T04:00:40;102464.38;;;2.18;100.00
15487;BME280;7845;53.698;10.078;2023-03-01T04:03:06;102468.00;;;2.22;100.00
15487;BME280;7845;53.698;10.078;2023-03-01T04:05:32;102466.53;;;2.27;100.00
15487;BME280;7845;53.698;10.078;2023-03-01T04:07:59;102459.97;;;2.32;100.00
15487;BME280;7845;53.698;10.078;2023-03-01T04:10:32;102467.84;;;2.35;100.00
15487;BME280;7845;53.698;10.078;2023-03-01T04:12:58;102463.75;;;2.39;100.00
15487;BME280;7845;53.698;10.078;2023-03-01T04:15:25;102457.03;;;2.42;100.00
15487;BME280;7845;53.698;10.078;2023-03-01T04:17:53;102456.41;;;2.46;100.00
15487;BME280;7845;53.698;10.078;2023-03-01T04:20:27;102465.25;;;2.51;100.00
15487;BME280;7845;53.698;10.078;2023-03-01T04:22:59;102466.25;;;2.53;100.00
15487;BME280;7845;53.698;10.078;2023-03-01T04:25:33;102467.34;;;2.58;100.00
15487;BME280;7845;53.698;10.078;2023-03-01T04:27:58;102465.00;;;2.63;100.00
15487;BME280;7845;53.698;10.078;2023-03-01T04:30:24;102467.72;;;2.66;100.00
15487;BME280;7845;53.698;10.078;2023-03-01T04:32:51;102467.81;;;2.67;100.00
15487;BME280;7845;53.698;10.078;2023-03-01T04:35:16;102471.44;;;2.71;100.00
15487;BME280;7845;53.698;10.078;2023-03-01T04:37:42;102467.97;;;2.70;100.00
15487;BME280;7845;53.698;10.078;2023-03-01T04:40:10;102467.41;;;2.60;100.00
15487;BME280;7845;53.698;10.078;2023-03-01T04:42:42;102459.94;;;2.64;100.00
15487;BME280;7845;53.698;10.078;2023-03-01T04:45:08;102454.19;;;2.70;100.00
15487;BME280;7845;53.698;10.078;2023-03-01T04:47:48;102450.16;;;2.75;100.00
15487;BME280;7845;53.698;10.078;2023-03-01T04:50:17;102449.50;;;2.79;100.00
15487;BME280;7845;53.698;10.078;2023-03-01T04:52:45;102455.78;;;2.84;100.00
15487;BME280;7845;53.698;10.078;2023-03-01T04:55:11;102458.66;;;2.90;100.00
15487;BME280;7845;53.698;10.078;2023-03-01T04:57:37;102456.25;;;2.93;100.00
15487;BME280;7845;53.698;10.078;2023-03-01T05:00:04;102453.81;;;2.96;100.00
15487;BME280;7845;53.698;10.078;2023-03-01T05:05:14;102444.63;;;3.01;100.00
15487;BME280;7845;53.698;10.078;2023-03-01T05:07:40;102448.16;;;3.03;100.00
15487;BME280;7845;53.698;10.078;2023-03-01T05:10:05;102444.84;;;3.06;100.00
15487;BME280;7845;53.698;10.078;2023-03-01T05:12:31;102445.88;;;3.09;100.00
15487;BME280;7845;53.698;10.078;2023-03-01T05:14:56;102444.19;;;3.10;100.00
15487;BME280;7845;53.698;10.078;2023-03-01T05:17:21;102443.31;;;3.09;100.00
15487;BME280;7845;53.698;10.078;2023-03-01T05:19:46;102452.72;;;3.09;100.00
15487;BME280;7845;53.698;10.078;2023-03-01T05:22:12;102447.66;;;3.10;100.00
15487;BME280;7845;53.698;10.078;2023-03-01T05:24:37;102441.53;;;3.08;100.00
15487;BME280;7845;53.698;10.078;2023-03-01T05:27:04;102445.78;;;3.08;100.00
15487;BME280;7845;53.698;10.078;2023-03-01T05:29:31;102444.38;;;2.97;100.00
15487;BME280;7845;53.698;10.078;2023-03-01T05:32:00;102440.13;;;2.97;100.00
15487;BME280;7845;53.698;10.078;2023-03-01T05:34:31;102426.44;;;2.98;100.00
15487;BME280;7845;53.698;10.078;2023-03-01T05:36:58;102423.25;;;3.04;100.00
15487;BME280;7845;53.698;10.078;2023-03-01T05:39:25;102425.09;;;3.06;100.00
15487;BME280;7845;53.698;10.078;2023-03-01T05:41:55;102415.28;;;2.99;100.00
15487;BME280;7845;53.698;10.078;2023-03-01T05:44:22;102421.28;;;2.98;100.00
15487;BME280;7845;53.698;10.078;2023-03-01T05:46:49;102411.53;;;2.93;100.00
15487;BME280;7845;53.698;10.078;2023-03-01T05:49:16;102418.16;;;2.88;100.00
15487;BME280;7845;53.698;10.078;2023-03-01T05:51:43;102417.47;;;2.74;100.00
15487;BME280;7845;53.698;10.078;2023-03-01T05:54:12;102417.31;;;2.71;100.00
15487;BME280;7845;53.698;10.078;2023-03-01T05:56:37;102411.13;;;2.67;100.00
15487;BME280;7845;53.698;10.078;2023-03-01T05:59:03;102412.03;;;2.52;100.00
15487;BME280;7845;53.698;10.078;2023-03-01T06:01:30;102416.06;;;2.47;100.00
15487;BME280;7845;53.698;10.078;2023-03-01T06:03:55;102414.38;;;2.47;100.00
15487;BME280;7845;53.698;10.078;2023-03-01T06:06:24;102414.38;;;2.47;100.00
15487;BME280;7845;53.698;10.078;2023-03-01T06:08:50;102410.28;;;2.51;100.00
15487;BME280;7845;53.698;10.078;2023-03-01T06:11:19;102402.78;;;2.55;100.00
15487;BME280;7845;53.698;10.078;2023-03-01T06:13:46;102389.88;;;2.55;100.00
15487;BME280;7845;53.698;10.078;2023-03-01T06:16:13;102399.47;;;2.58;100.00
15487;BME280;7845;53.698;10.078;2023-03-01T06:18:38;102406.38;;;2.59;100.00
15487;BME280;7845;53.698;10.078;2023-03-01T06:21:05;102404.63;;;2.58;100.00
15487;BME280;7845;53.698;10.078;2023-03-01T06:23:31;102399.56;;;2.59;100.00
15487;BME280;7845;53.698;10.078;2023-03-01T06:25:56;102405.56;;;2.60;100.00
15487;BME280;7845;53.698;10.078;2023-03-01T06:28:22;102395.50;;;2.64;100.00
15487;BME280;7845;53.698;10.078;2023-03-01T06:30:48;102403.44;;;2.69;100.00
15487;BME280;7845;53.698;10.078;2023-03-01T06:33:14;102396.13;;;2.76;100.00
15487;BME280;7845;53.698;10.078;2023-03-01T06:35:39;102400.78;;;2.84;100.00
15487;BME280;7845;53.698;10.078;2023-03-01T06:38:05;102405.03;;;2.83;100.00
15487;BME280;7845;53.698;10.078;2023-03-01T06:40:31;102398.34;;;2.87;100.00
15487;BME280;7845;53.698;10.078;2023-03-01T06:42:56;102406.28;;;2.91;100.00
15487;BME280;7845;53.698;10.078;2023-03-01T06:45:22;102403.28;;;3.00;100.00
15487;BME280;7845;53.698;10.078;2023-03-01T06:47:48;102404.53;;;3.08;100.00
15487;BME280;7845;53.698;10.078;2023-03-01T06:50:14;102399.75;;;3.15;100.00
15487;BME280;7845;53.698;10.078;2023-03-01T06:52:39;102400.09;;;3.23;100.00
15487;BME280;7845;53.698;10.078;2023-03-01T06:55:06;102410.13;;;3.17;100.00
15487;BME280;7845;53.698;10.078;2023-03-01T06:57:31;102411.16;;;3.20;100.00
15487;BME280;7845;53.698;10.078;2023-03-01T06:59:57;102404.63;;;3.27;100.00
15487;BME280;7845;53.698;10.078;2023-03-01T07:02:23;102397.16;;;3.51;100.00
15487;BME280;7845;53.698;10.078;2023-03-01T07:04:52;102395.91;;;3.43;100.00
15487;BME280;7845;53.698;10.078;2023-03-01T07:07:18;102389.22;;;3.46;100.00
15487;BME280;7845;53.698;10.078;2023-03-01T07:09:44;102397.09;;;3.49;100.00
15487;BME280;7845;53.698;10.078;2023-03-01T07:12:09;102389.78;;;3.41;100.00
15487;BME280;7845;53.698;10.078;2023-03-01T07:14:35;102382.41;;;3.48;100.00
15487;BME280;7845;53.698;10.078;2023-03-01T07:17:00;102376.63;;;3.54;100.00
15487;BME280;7845;53.698;10.078;2023-03-01T07:19:26;102379.09;;;3.51;100.00
15487;BME280;7845;53.698;10.078;2023-03-01T07:21:51;102377.91;;;3.44;100.00
15487;BME280;7845;53.698;10.078;2023-03-01T07:24:16;102370.44;;;3.50;100.00
15487;BME280;7845;53.698;10.078;2023-03-01T07:26:42;102362.09;;;3.56;100.00
15487;BME280;7845;53.698;10.078;2023-03-01T07:29:09;102353.09;;;3.65;100.00
15487;BME280;7845;53.698;10.078;2023-03-01T07:31:35;102352.69;;;3.75;100.00
15487;BME280;7845;53.698;10.078;2023-03-01T07:34:00;102350.44;;;3.83;100.00
15487;BME280;7845;53.698;10.078;2023-03-01T07:36:26;102350.59;;;3.86;100.00
15487;BME280;7845;53.698;10.078;2023-03-01T07:38:51;102353.38;;;3.90;100.00
15487;BME280;7845;53.698;10.078;2023-03-01T07:41:17;102361.81;;;3.86;100.00
15487;BME280;7845;53.698;10.078;2023-03-01T07:43:43;102360.09;;;3.87;100.00
15487;BME280;7845;53.698;10.078;2023-03-01T07:46:08;102357.03;;;3.96;100.00
15487;BME280;7845;53.698;10.078;2023-03-01T07:48:34;102352.50;;;3.90;100.00
15487;BME280;7845;53.698;10.078;2023-03-01T07:51:05;102349.78;;;3.87;100.00
15487;BME280;7845;53.698;10.078;2023-03-01T07:53:32;102349.03;;;3.89;100.00
15487;BME280;7845;53.698;10.078;2023-03-01T07:56:10;102347.72;;;3.80;100.00
15487;BME280;7845;53.698;10.078;2023-03-01T07:58:37;102337.41;;;3.80;100.00
15487;BME280;7845;53.698;10.078;2023-03-01T08:01:04;102339.78;;;3.75;100.00
15487;BME280;7845;53.698;10.078;2023-03-01T08:03:30;102321.44;;;3.69;100.00
15487;BME280;7845;53.698;10.078;2023-03-01T08:06:00;102316.06;;;3.65;100.00
15487;BME280;7845;53.698;10.078;2023-03-01T08:08:26;102316.06;;;3.65;100.00
15487;BME280;7845;53.698;10.078;2023-03-01T08:10:51;102321.50;;;3.71;100.00
15487;BME280;7845;53.698;10.078;2023-03-01T08:13:17;102308.72;;;3.74;100.00
15487;BME280;7845;53.698;10.078;2023-03-01T08:15:50;102309.88;;;3.80;100.00
15487;BME280;7845;53.698;10.078;2023-03-01T08:18:17;102305.75;;;3.84;100.00
15487;BME280;7845;53.698;10.078;2023-03-01T08:20:42;102305.00;;;3.86;100.00
15487;BME280;7845;53.698;10.078;2023-03-01T08:23:07;102292.28;;;3.91;100.00
15487;BME280;7845;53.698;10.078;2023-03-01T08:25:33;102294.25;;;3.97;100.00
15487;BME280;7845;53.698;10.078;2023-03-01T08:27:59;102285.66;;;3.98;100.00
15487;BME280;7845;53.698;10.078;2023-03-01T08:30:25;102262.19;;;4.12;100.00
15487;BME280;7845;53.698;10.078;2023-03-01T08:32:50;102263.81;;;4.10;100.00
15487;BME280;7845;53.698;10.078;2023-03-01T08:35:16;102259.69;;;4.14;100.00
15487;BME280;7845;53.698;10.078;2023-03-01T08:37:42;102248.03;;;4.03;100.00
15487;BME280;7845;53.698;10.078;2023-03-01T08:40:08;102242.28;;;4.10;100.00
15487;BME280;7845;53.698;10.078;2023-03-01T08:42:38;102238.38;;;4.19;100.00
15487;BME280;7845;53.698;10.078;2023-03-01T08:45:03;102230.13;;;4.28;100.00
15487;BME280;7845;53.698;10.078;2023-03-01T08:47:29;102218.16;;;4.30;100.00
15487;BME280;7845;53.698;10.078;2023-03-01T08:49:54;102216.56;;;4.33;100.00
15487;BME280;7845;53.698;10.078;2023-03-01T08:52:20;102223.59;;;4.36;100.00
15487;BME280;7845;53.698;10.078;2023-03-01T08:54:47;102222.06;;;4.41;100.00
15487;BME280;7845;53.698;10.078;2023-03-01T08:57:13;102230.06;;;4.47;100.00
15487;BME280;7845;53.698;10.078;2023-03-01T08:59:38;102226.63;;;4.48;100.00
15487;BME280;7845;53.698;10.078;2023-03-01T09:02:04;102228.59;;;4.54;100.00
15487;BME280;7845;53.698;10.078;2023-03-01T09:04:30;102223.56;;;4.57;100.00
15487;BME280;7845;53.698;10.078;2023-03-01T09:06:56;102221.94;;;4.60;100.00
15487;BME280;7845;53.698;10.078;2023-03-01T09:09:21;102224.84;;;4.68;100.00
15487;BME280;7845;53.698;10.078;2023-03-01T09:11:46;102223.41;;;4.74;100.00
15487;BME280;7845;53.698;10.078;2023-03-01T09:14:13;102218.38;;;4.79;100.00
15487;BME280;7845;53.698;10.078;2023-03-01T09:16:39;102217.75;;;4.84;100.00
15487;BME280;7845;53.698;10.078;2023-03-01T09:19:04;102210.09;;;4.87;100.00
15487;BME280;7845;53.698;10.078;2023-03-01T09:21:30;102215.03;;;4.81;100.00
15487;BME280;7845;53.698;10.078;2023-03-01T09:23:57;102207.00;;;4.74;100.00
15487;BME280;7845;53.698;10.078;2023-03-01T09:26:23;102208.81;;;4.76;100.00
15487;BME280;7845;53.698;10.078;2023-03-01T09:28:51;102207.28;;;4.81;100.00
15487;BME280;7845;53.698;10.078;2023-03-01T09:31:18;102205.81;;;4.88;100.00
15487;BME280;7845;53.698;10.078;2023-03-01T09:33:46;102201.69;;;4.93;100.00
15487;BME280;7845;53.698;10.078;2023-03-01T09:36:15;102193.22;;;4.97;100.00
15487;BME280;7845;53.698;10.078;2023-03-01T09:38:40;102202.66;;;4.95;100.00
15487;BME280;7845;53.698;10.078;2023-03-01T09:46:57;102184.81;;;5.26;100.00
15487;BME280;7845;53.698;10.078;2023-03-01T09:49:25;102194.47;;;5.30;100.00
15487;BME280;7845;53.698;10.078;2023-03-01T09:54:20;102194.72;;;5.38;100.00
15487;BME280;7845;53.698;10.078;2023-03-01T09:56:57;102197.75;;;5.50;100.00
15487;BME280;7845;53.698;10.078;2023-03-01T10:00:12;102196.06;;;5.50;100.00
15487;BME280;7845;53.698;10.078;2023-03-01T10:02:50;102190.19;;;5.54;100.00
15487;BME280;7845;53.698;10.078;2023-03-01T10:05:28;102187.84;;;5.62;100.00
15487;BME280;7845;53.698;10.078;2023-03-01T10:08:19;102197.59;;;5.69;100.00
15487;BME280;7845;53.698;10.078;2023-03-01T10:10:49;102191.72;;;5.73;100.00
15487;BME280;7845;53.698;10.078;2023-03-01T10:16:17;102201.44;;;5.80;100.00
15487;BME280;7845;53.698;10.078;2023-03-01T10:18:48;102198.03;;;5.81;100.00
15487;BME280;7845;53.698;10.078;2023-03-01T10:21:19;102196.31;;;5.82;100.00
15487;BME280;7845;53.698;10.078;2023-03-01T10:23:46;102188.91;;;5.91;100.00
15487;BME280;7845;53.698;10.078;2023-03-01T10:26:14;102189.59;;;5.87;100.00
15487;BME280;7845;53.698;10.078;2023-03-01T10:29:05;102181.22;;;5.94;100.00
15487;BME280;7845;53.698;10.078;2023-03-01T10:31:42;102175.78;;;5.86;100.00
15487;BME280;7845;53.698;10.078;2023-03-01T10:34:14;102170.75;;;5.91;100.00
15487;BME280;7845;53.698;10.078;2023-03-01T10:36:41;102162.44;;;6.01;100.00
15487;BME280;7845;53.698;10.078;2023-03-01T10:39:22;102161.56;;;6.00;100.00
15487;BME280;7845;53.698;10.078;2023-03-01T10:41:57;102166.59;;;5.96;100.00
15487;BME280;7845;53.698;10.078;2023-03-01T10:44:43;102164.09;;;5.99;100.00
15487;BME280;7845;53.698;10.078;2023-03-01T10:47:26;102159.84;;;6.01;100.00
15487;BME280;7845;53.698;10.078;2023-03-01T10:50:03;102154.88;;;6.07;100.00
15487;BME280;7845;53.698;10.078;2023-03-01T10:52:37;102144.69;;;6.13;100.00
15487;BME280;7845;53.698;10.078;2023-03-01T10:58:19;102141.69;;;6.26;100.00
15487;BME280;7845;53.698;10.078;2023-03-01T11:01:44;102146.97;;;6.29;100.00
15487;BME280;7845;53.698;10.078;2023-03-01T11:06:30;102143.81;;;6.39;100.00
15487;BME280;7845;53.698;10.078;2023-03-01T11:08:56;102149.25;;;6.47;100.00
15487;BME280;7845;53.698;10.078;2023-03-01T11:16:37;102146.84;;;6.53;100.00
15487;BME280;7845;53.698;10.078;2023-03-01T11:19:14;102141.25;;;6.69;100.00
15487;BME280;7845;53.698;10.078;2023-03-01T11:21:59;102138.84;;;6.75;100.00
15487;BME280;7845;53.698;10.078;2023-03-01T11:24:47;102130.50;;;6.85;100.00
15487;BME280;7845;53.698;10.078;2023-03-01T11:27:18;102146.88;;;6.83;100.00
15487;BME280;7845;53.698;10.078;2023-03-01T11:29:47;102141.69;;;6.83;100.00
15487;BME280;7845;53.698;10.078;2023-03-01T11:32:16;102155.81;;;6.64;100.00
15487;BME280;7845;53.698;10.078;2023-03-01T11:34:48;102162.81;;;6.66;100.00
15487;BME280;7845;53.698;10.078;2023-03-01T11:37:39;102150.78;;;6.68;100.00
15487;BME280;7845;53.698;10.078;2023-03-01T11:40:29;102142.25;;;6.73;100.00
15487;BME280;7845;53.698;10.078;2023-03-01T11:43:16;102151.34;;;6.87;100.00
15487;BME280;7845;53.698;10.078;2023-03-01T11:57:01;102153.31;;;7.25;100.00
15487;BME280;7845;53.698;10.078;2023-03-01T11:59:45;102168.81;;;7.22;100.00
15487;BME280;7845;53.698;10.078;2023-03-01T12:10:28;102211.31;;;7.26;100.00
15487;BME280;7845;53.698;10.078;2023-03-01T12:13:09;102216.72;;;7.33;100.00
15487;BME280;7845;53.698;10.078;2023-03-01T12:18:34;102241.81;;;7.33;100.00
15487;BME280;7845;53.698;10.078;2023-03-01T12:29:34;102284.75;;;7.21;100.00
15487;BME280;7845;53.698;10.078;2023-03-01T12:32:20;102286.94;;;7.36;100.00
15487;BME280;7845;53.698;10.078;2023-03-01T12:35:18;102288.44;;;7.28;100.00
15487;BME280;7845;53.698;10.078;2023-03-01T12:38:02;102294.94;;;7.44;100.00
15487;BME280;7845;53.698;10.078;2023-03-01T12:48:59;102270.19;;;7.56;100.00
15487;BME280;7845;53.698;10.078;2023-03-01T12:51:31;102264.91;;;7.53;100.00
15487;BME280;7845;53.698;10.078;2023-03-01T12:53:59;102271.09;;;7.57;100.00
15487;BME280;7845;53.698;10.078;2023-03-01T12:56:35;102258.81;;;7.51;100.00
15487;BME280;7845;53.698;10.078;2023-03-01T12:59:23;102247.75;;;7.58;100.00
15487;BME280;7845;53.698;10.078;2023-03-01T13:07:40;102230.69;;;7.37;100.00
15487;BME280;7845;53.698;10.078;2023-03-01T13:12:46;102221.19;;;7.37;100.00
15487;BME280;7845;53.698;10.078;2023-03-01T13:17:51;102214.25;;;7.67;100.00
15487;BME280;7845;53.698;10.078;2023-03-01T13:20:20;102198.66;;;7.69;100.00
15487;BME280;7845;53.698;10.078;2023-03-01T13:22:46;102206.03;;;7.54;100.00
15487;BME280;7845;53.698;10.078;2023-03-01T13:25:18;102208.72;;;7.57;100.00
15487;BME280;7845;53.698;10.078;2023-03-01T13:27:45;102207.13;;;7.62;100.00
15487;BME280;7845;53.698;10.078;2023-03-01T13:35:49;102206.81;;;7.82;100.00
15487;BME280;7845;53.698;10.078;2023-03-01T13:38:46;102200.94;;;7.88;100.00
15487;BME280;7845;53.698;10.078;2023-03-01T13:41:14;102200.94;;;7.88;100.00
15487;BME280;7845;53.698;10.078;2023-03-01T13:43:42;102209.38;;;7.81;100.00
15487;BME280;7845;53.698;10.078;2023-03-01T13:46:20;102214.63;;;7.82;100.00
15487;BME280;7845;53.698;10.078;2023-03-01T13:48:49;102214.00;;;7.91;100.00
15487;BME280;7845;53.698;10.078;2023-03-01T13:51:16;102223.53;;;7.92;100.00
15487;BME280;7845;53.698;10.078;2023-03-01T13:53:46;102222.72;;;7.93;100.00
15487;BME280;7845;53.698;10.078;2023-03-01T13:56:16;102225.97;;;7.86;100.00
15487;BME280;7845;53.698;10.078;2023-03-01T13:58:50;102232.88;;;7.84;100.00
15487;BME280;7845;53.698;10.078;2023-03-01T14:01:31;102238.50;;;8.01;100.00
15487;BME280;7845;53.698;10.078;2023-03-01T14:03:58;102228.97;;;8.01;100.00
15487;BME280;7845;53.698;10.078;2023-03-01T14:06:26;102236.06;;;8.07;100.00
15487;BME280;7845;53.698;10.078;2023-03-01T14:14:42;102216.03;;;8.03;100.00
15487;BME280;7845;53.698;10.078;2023-03-01T14:17:28;102228.22;;;8.05;100.00
15487;BME280;7845;53.698;10.078;2023-03-01T14:20:02;102229.94;;;8.05;100.00
15487;BME280;7845;53.698;10.078;2023-03-01T14:22:32;102222.06;;;8.34;100.00
15487;BME280;7845;53.698;10.078;2023-03-01T14:25:15;102217.94;;;8.10;100.00
15487;BME280;7845;53.698;10.078;2023-03-01T14:27:42;102224.97;;;8.14;100.00
15487;BME280;7845;53.698;10.078;2023-03-01T14:30:14;102234.75;;;7.90;100.00
15487;BME280;7845;53.698;10.078;2023-03-01T14:32:42;102234.34;;;8.07;100.00
15487;BME280;7845;53.698;10.078;2023-03-01T14:35:22;102236.69;;;7.98;100.00
15487;BME280;7845;53.698;10.078;2023-03-01T14:37:47;102235.78;;;7.96;100.00